Spencer, South Dakota
Current Conditions -  °F | °C
As of 12:53 PM on Thursday 30 Oct 2014 (Local Time) from KMHE Reporting Station
Overcast Overcast  
Wind Chill:   Ceiling: 1500
Heat Index:   Visibility: 10mi
Dew Point:   Wind: 21mph
Humidity: 76%   Direction: 340°NNW
Pressure: 30.22"   Gusts: 26mph
Location:  43.73°N, 97.59°W
Report Text: KMHE 301753Z AUTO 34018G23KT 10SM OVC015 07/03 A3022 RMK AO2 PK WND 33029/1713 SLP242 T00720033 10094 20028 53029
Loading
Personal Weather Stations






























Interactive Weather Map
Tropical Storm Tracking
New forecast layout! Learn more

10-Day Weather Forecast

Advertisements
Track Severe Weather on mobile